createdAt,value
2022-10-25T00:02:23.118Z,95359.28
2022-10-25T00:04:49.793Z,95347.63
2022-10-25T00:07:16.359Z,95350.22
2022-10-25T00:09:42.966Z,95349.25
2022-10-25T00:12:09.790Z,95345.47
2022-10-25T00:14:36.406Z,95343.56
2022-10-25T00:17:02.951Z,95348.28
2022-10-25T00:19:29.541Z,95331.06
2022-10-25T00:21:56.143Z,95337.28
2022-10-25T00:24:22.715Z,95348.28
2022-10-25T00:26:49.258Z,95343.84
2022-10-25T00:29:17.587Z,95344.94
2022-10-25T00:31:44.309Z,95347.66
2022-10-25T00:34:10.903Z,95349.78
2022-10-25T00:36:37.522Z,95350.97
2022-10-25T00:39:04.178Z,95346.09
2022-10-25T00:41:33.411Z,95346.94
2022-10-25T00:44:37.627Z,95350.75
2022-10-25T00:47:06.055Z,95340.09
2022-10-25T00:49:34.051Z,95343.16
2022-10-25T00:52:05.088Z,95338.56
2022-10-25T00:54:43.588Z,95339.34
2022-10-25T00:57:16.444Z,95330.94
2022-10-25T00:59:44.808Z,95328.31
2022-10-25T01:02:12.072Z,95334.84
2022-10-25T01:04:39.033Z,95334.50
2022-10-25T01:07:05.570Z,95333.47
2022-10-25T01:09:35.347Z,95330.22
2022-10-25T01:12:02.319Z,95327.47
2022-10-25T01:14:31.219Z,95323.72
2022-10-25T01:17:08.929Z,95324.13
2022-10-25T01:20:13.232Z,95324.97
2022-10-25T01:22:49.938Z,95317.94
2022-10-25T01:25:43.850Z,95317.59
2022-10-25T01:28:47.910Z,95317.22
2022-10-25T01:31:36.102Z,95325.81
2022-10-25T01:34:12.881Z,95327.03
2022-10-25T01:36:52.850Z,95321.38
2022-10-25T01:39:31.455Z,95313.28
2022-10-25T01:42:06.911Z,95320.72
2022-10-25T01:45:02.259Z,95313.56
2022-10-25T01:47:31.559Z,95312.13
2022-10-25T01:50:05.438Z,95326.38
2022-10-25T01:52:31.980Z,95333.16
2022-10-25T01:54:58.527Z,95336.44
2022-10-25T01:57:50.093Z,95336.19
2022-10-25T02:00:20.043Z,95347.44
2022-10-25T02:03:22.605Z,95343.38
2022-10-25T02:05:59.021Z,95333.91
2022-10-25T02:08:36.180Z,95345.56
2022-10-25T02:11:28.220Z,95346.81
2022-10-25T02:14:13.637Z,95355.63
2022-10-25T02:16:49.262Z,95345.75
2022-10-25T02:19:23.807Z,95340.19
2022-10-25T02:21:53.932Z,95339.94
2022-10-25T02:24:26.443Z,95337.06
2022-10-25T02:26:54.488Z,95338.97
2022-10-25T02:29:22.847Z,95320.56
2022-10-25T02:31:49.595Z,95320.13
2022-10-25T02:34:16.294Z,95317.69
2022-10-25T02:36:42.850Z,95314.19
2022-10-25T02:39:09.477Z,95317.69
2022-10-25T02:41:36.029Z,95308.88
2022-10-25T02:44:02.578Z,95315.78
2022-10-25T02:46:29.132Z,95319.59
2022-10-25T02:48:55.812Z,95322.69
2022-10-25T02:51:23.025Z,95327.84
2022-10-25T02:53:49.971Z,95327.16
2022-10-25T02:56:19.713Z,95332.47
2022-10-25T02:58:48.240Z,95335.56
2022-10-25T03:01:16.289Z,95328.94
2022-10-25T03:03:43.071Z,95329.19
2022-10-25T03:06:11.260Z,95328.91
2022-10-25T03:08:39.553Z,95324.84
2022-10-25T03:11:07.452Z,95339.22
2022-10-25T03:13:34.403Z,95332.72
2022-10-25T03:16:01.206Z,95340.13
2022-10-25T03:18:27.839Z,95334.25
2022-10-25T03:20:59.405Z,95332.72
2022-10-25T03:23:26.291Z,95335.72
2022-10-25T03:25:57.965Z,95328.19
2022-10-25T03:28:27.333Z,95334.69
2022-10-25T03:30:54.730Z,95331.44
2022-10-25T03:33:21.407Z,95340.25
2022-10-25T03:35:52.665Z,95340.66
2022-10-25T03:38:19.404Z,95339.56
2022-10-25T03:40:46.081Z,95344.84
2022-10-25T03:43:13.018Z,95352.47
2022-10-25T03:45:39.650Z,95344.03
2022-10-25T03:48:06.477Z,95347.41
2022-10-25T03:50:33.121Z,95351.75
2022-10-25T03:53:00.021Z,95346.59
2022-10-25T03:55:26.643Z,95349.72
2022-10-25T03:57:53.182Z,95352.00
2022-10-25T04:00:19.843Z,95347.91
2022-10-25T04:02:46.402Z,95352.38
2022-10-25T04:05:13.055Z,95357.09
2022-10-25T04:07:39.610Z,95352.59
2022-10-25T04:10:06.487Z,95351.56
2022-10-25T04:12:33.007Z,95351.31
2022-10-25T04:15:02.332Z,95344.06
2022-10-25T04:17:28.883Z,95342.47
2022-10-25T04:19:55.448Z,95350.34
2022-10-25T04:22:22.153Z,95347.47
2022-10-25T04:24:48.804Z,95355.75
2022-10-25T04:27:15.700Z,95352.63
2022-10-25T04:29:42.250Z,95347.94
2022-10-25T04:32:08.853Z,95349.22
2022-10-25T04:34:35.473Z,95347.59
2022-10-25T04:37:02.019Z,95353.75
2022-10-25T04:39:28.734Z,95357.16
2022-10-25T04:41:55.340Z,95360.16
2022-10-25T04:44:21.996Z,95358.81
2022-10-25T04:46:49.019Z,95363.44
2022-10-25T04:49:16.152Z,95362.06
2022-10-25T04:51:42.860Z,95366.03
2022-10-25T04:54:11.432Z,95366.78
2022-10-25T04:56:38.148Z,95361.38
2022-10-25T04:59:04.715Z,95363.94
2022-10-25T05:01:31.447Z,95365.75
2022-10-25T05:03:58.073Z,95360.44
2022-10-25T05:06:26.757Z,95354.88
2022-10-25T05:08:54.386Z,95356.66
2022-10-25T05:11:24.516Z,95354.59
2022-10-25T05:13:51.319Z,95354.88
2022-10-25T05:16:22.916Z,95362.22
2022-10-25T05:18:50.044Z,95363.16
2022-10-25T05:21:18.218Z,95358.66
2022-10-25T05:23:45.774Z,95361.69
2022-10-25T05:26:15.064Z,95361.53
2022-10-25T05:28:43.426Z,95365.72
2022-10-25T05:31:15.881Z,95367.50
2022-10-25T05:33:46.191Z,95373.31
2022-10-25T05:36:13.840Z,95370.50
2022-10-25T05:38:41.271Z,95372.25
2022-10-25T05:41:08.566Z,95380.84
2022-10-25T05:43:35.131Z,95384.09
2022-10-25T05:46:09.322Z,95385.03
2022-10-25T05:48:37.324Z,95386.94
2022-10-25T05:51:34.625Z,95383.28
2022-10-25T05:54:04.115Z,95392.91
2022-10-25T05:56:32.378Z,95388.59
2022-10-25T05:59:09.262Z,95387.75
2022-10-25T06:01:38.360Z,95395.94
2022-10-25T06:04:05.534Z,95395.25
2022-10-25T06:06:32.331Z,95391.03
2022-10-25T06:09:00.978Z,95400.69
2022-10-25T06:11:29.576Z,95400.81
2022-10-25T06:13:56.248Z,95405.28
2022-10-25T06:16:23.596Z,95411.97
2022-10-25T06:18:50.290Z,95413.31
2022-10-25T06:21:19.626Z,95416.97
2022-10-25T06:23:47.579Z,95417.78
2022-10-25T06:26:36.745Z,95423.06
2022-10-25T06:29:05.331Z,95423.47
2022-10-25T06:31:32.811Z,95425.50
2022-10-25T06:34:03.059Z,95425.75
2022-10-25T06:36:31.347Z,95427.53
2022-10-25T06:39:03.567Z,95433.47
2022-10-25T06:41:36.710Z,95441.88
2022-10-25T06:44:06.626Z,95434.13
2022-10-25T06:46:57.787Z,95432.25
2022-10-25T06:49:23.326Z,95437.28
2022-10-25T06:51:49.912Z,95430.66
2022-10-25T06:54:16.509Z,95443.13
2022-10-25T06:56:43.147Z,95444.22
2022-10-25T06:59:09.706Z,95433.66
2022-10-25T07:01:45.045Z,95437.31
2022-10-25T07:04:11.806Z,95446.16
2022-10-25T07:06:38.421Z,95447.75
2022-10-25T07:09:06.198Z,95442.59
2022-10-25T07:11:33.060Z,95440.16
2022-10-25T07:14:00.651Z,95450.69
2022-10-25T07:16:28.718Z,95445.25
2022-10-25T07:19:03.181Z,95445.47
2022-10-25T07:21:31.683Z,95451.84
2022-10-25T07:23:58.271Z,95452.78
2022-10-25T07:26:28.399Z,95449.34
2022-10-25T07:28:56.897Z,95451.22
2022-10-25T07:31:38.106Z,95450.78
2022-10-25T07:34:05.598Z,95446.63
2022-10-25T07:36:32.295Z,95452.72
2022-10-25T07:38:59.186Z,95459.47
2022-10-25T07:41:26.209Z,95461.00
2022-10-25T07:43:52.799Z,95462.03
2022-10-25T07:46:19.612Z,95454.88
2022-10-25T07:48:46.202Z,95465.03
2022-10-25T07:51:15.368Z,95472.91
2022-10-25T07:53:42.696Z,95472.81
2022-10-25T07:56:20.439Z,95471.94
2022-10-25T07:58:50.014Z,95475.59
2022-10-25T08:01:28.076Z,95473.50
2022-10-25T08:03:55.441Z,95470.81
2022-10-25T08:06:25.604Z,95469.03
2022-10-25T08:08:52.554Z,95467.72
2022-10-25T08:11:19.326Z,95475.56
2022-10-25T08:13:49.788Z,95468.88
2022-10-25T08:16:16.432Z,95468.28
2022-10-25T08:18:44.014Z,95467.28
2022-10-25T08:21:10.599Z,95464.69
2022-10-25T08:23:37.179Z,95471.34
2022-10-25T08:26:03.765Z,95472.63
2022-10-25T08:28:31.316Z,95475.38
2022-10-25T08:30:58.723Z,95475.25
2022-10-25T08:33:25.306Z,95473.22
2022-10-25T08:35:51.958Z,95470.38
2022-10-25T08:38:18.535Z,95469.94
2022-10-25T08:40:54.334Z,95472.34
2022-10-25T08:43:30.184Z,95466.28
2022-10-25T08:46:10.175Z,95473.41
2022-10-25T08:48:41.202Z,95469.47
2022-10-25T08:51:21.406Z,95471.59
2022-10-25T08:56:25.738Z,95467.25
2022-10-25T08:59:00.212Z,95468.53
2022-10-25T09:01:40.841Z,95461.31
2022-10-25T09:04:07.614Z,95461.34
2022-10-25T09:06:47.693Z,95459.69
2022-10-25T09:09:40.858Z,95466.88
2022-10-25T09:12:22.605Z,95464.59
2022-10-25T09:15:02.840Z,95458.69
2022-10-25T09:17:41.401Z,95461.75
2022-10-25T09:20:16.948Z,95465.16
2022-10-25T09:22:49.491Z,95463.34
2022-10-25T09:25:52.928Z,95465.16
2022-10-25T09:28:26.117Z,95460.81
2022-10-25T09:30:57.276Z,95451.91
2022-10-25T09:33:28.360Z,95456.31
2022-10-25T09:35:57.303Z,95460.03
2022-10-25T09:38:57.243Z,95455.75
2022-10-25T09:41:42.326Z,95460.41
2022-10-25T09:44:36.255Z,95456.94
2022-10-25T09:47:19.499Z,95457.41
2022-10-25T09:50:00.128Z,95460.38
2022-10-25T09:52:54.492Z,95454.72
2022-10-25T09:55:33.493Z,95460.06
2022-10-25T09:58:01.525Z,95467.59
2022-10-25T10:00:28.355Z,95460.88
2022-10-25T10:02:55.613Z,95459.19
2022-10-25T10:05:22.684Z,95459.00
2022-10-25T10:07:50.790Z,95462.72
2022-10-25T10:10:24.844Z,95459.97
2022-10-25T10:13:16.827Z,95460.63
2022-10-25T10:15:52.654Z,95465.09
2022-10-25T10:18:33.574Z,95462.88
2022-10-25T10:21:06.038Z,95460.06
2022-10-25T10:23:38.111Z,95459.00
2022-10-25T10:26:25.727Z,95459.59
2022-10-25T10:29:07.838Z,95458.09
2022-10-25T10:31:44.398Z,95457.28
2022-10-25T10:34:44.033Z,95446.53
2022-10-25T10:37:21.079Z,95449.72
2022-10-25T10:40:05.160Z,95447.91
2022-10-25T10:43:16.551Z,95452.59
2022-10-25T10:45:26.919Z,95450.00
2022-10-25T10:47:53.439Z,95442.31
2022-10-25T10:50:23.249Z,95444.66
2022-10-25T10:52:55.130Z,95435.16
2022-10-25T10:55:31.204Z,95433.25
2022-10-25T10:58:32.729Z,95438.00
2022-10-25T11:01:02.803Z,95426.81
2022-10-25T11:03:42.407Z,95427.78
2022-10-25T11:06:15.667Z,95438.56
2022-10-25T11:08:47.738Z,95425.25
2022-10-25T11:11:21.579Z,95427.81
2022-10-25T11:13:58.665Z,95425.69
2022-10-25T11:16:33.554Z,95424.69
2022-10-25T11:19:15.523Z,95424.44
2022-10-25T11:22:14.399Z,95422.81
2022-10-25T11:24:59.178Z,95413.38
2022-10-25T11:27:37.848Z,95410.00
2022-10-25T11:30:21.119Z,95406.09
2022-10-25T11:33:24.733Z,95407.69
2022-10-25T11:36:13.183Z,95395.38
2022-10-25T11:38:48.884Z,95395.22
2022-10-25T11:41:24.706Z,95391.47
2022-10-25T11:44:15.603Z,95391.38
2022-10-25T11:46:48.340Z,95390.28
2022-10-25T11:49:27.173Z,95389.97
2022-10-25T11:51:53.733Z,95393.94
2022-10-25T11:54:41.082Z,95385.47
2022-10-25T11:57:32.672Z,95386.47
2022-10-25T12:00:14.806Z,95384.78
2022-10-25T12:03:15.536Z,95382.00
2022-10-25T12:06:23.409Z,95384.97
2022-10-25T12:09:20.643Z,95382.25
2022-10-25T12:11:53.289Z,95373.09
2022-10-25T12:14:28.433Z,95378.44
2022-10-25T12:16:58.040Z,95376.06
2022-10-25T12:19:28.511Z,95378.16
2022-10-25T12:22:01.596Z,95377.81
2022-10-25T12:24:39.552Z,95379.84
2022-10-25T12:27:10.415Z,95377.69
2022-10-25T12:29:44.167Z,95372.03
2022-10-25T12:32:29.032Z,95371.75
2022-10-25T12:34:59.418Z,95368.75
2022-10-25T12:37:45.106Z,95372.88
2022-10-25T12:40:17.999Z,95366.63
2022-10-25T12:42:49.033Z,95367.53
2022-10-25T12:45:57.499Z,95368.31
2022-10-25T12:49:06.597Z,95365.97
2022-10-25T12:51:45.172Z,95365.72
2022-10-25T12:54:33.481Z,95370.47
2022-10-25T12:57:30.794Z,95363.00
2022-10-25T13:00:14.384Z,95362.91
2022-10-25T13:02:59.231Z,95353.03
2022-10-25T13:05:44.501Z,95357.66
2022-10-25T13:08:13.086Z,95354.41
2022-10-25T13:10:47.529Z,95361.03
2022-10-25T13:13:16.822Z,95357.72
2022-10-25T13:15:50.266Z,95352.16
2022-10-25T13:18:39.998Z,95354.19
2022-10-25T13:21:10.068Z,95354.09
2022-10-25T13:23:42.824Z,95347.09
2022-10-25T13:26:14.964Z,95350.84
2022-10-25T13:28:49.927Z,95340.41
2022-10-25T13:31:34.838Z,95343.16
2022-10-25T13:34:13.325Z,95345.19
2022-10-25T13:36:51.810Z,95349.25
2022-10-25T13:39:25.412Z,95345.56
2022-10-25T13:41:55.441Z,95346.03
2022-10-25T13:44:26.476Z,95338.41
2022-10-25T13:46:54.735Z,95330.53
2022-10-25T13:49:27.447Z,95334.38
2022-10-25T13:51:56.506Z,95333.81
2022-10-25T13:54:23.674Z,95333.41
2022-10-25T13:56:53.943Z,95337.84
2022-10-25T13:59:50.037Z,95338.44
2022-10-25T14:02:20.120Z,95336.63
2022-10-25T14:04:47.134Z,95332.31
2022-10-25T14:07:42.485Z,95326.97
2022-10-25T14:10:16.890Z,95329.13
2022-10-25T14:12:50.281Z,95329.06
2022-10-25T14:15:35.744Z,95321.44
2022-10-25T14:18:07.689Z,95320.19
2022-10-25T14:20:35.463Z,95315.22
2022-10-25T14:23:03.772Z,95315.38
2022-10-25T14:25:39.427Z,95319.63
2022-10-25T14:28:16.425Z,95318.38
2022-10-25T14:30:46.223Z,95327.03
2022-10-25T14:33:27.959Z,95313.03
2022-10-25T14:36:11.619Z,95317.41
2022-10-25T14:38:53.895Z,95314.97
2022-10-25T14:41:26.569Z,95316.19
2022-10-25T14:43:54.212Z,95314.47
2022-10-25T14:46:23.577Z,95315.00
2022-10-25T14:48:54.730Z,95322.47
2022-10-25T14:51:29.857Z,95319.97
2022-10-25T14:54:01.661Z,95314.66
2022-10-25T14:56:30.072Z,95312.09
2022-10-25T14:58:57.627Z,95315.56
2022-10-25T15:01:24.600Z,95313.66
2022-10-25T15:03:54.518Z,95308.81
2022-10-25T15:06:24.863Z,95313.72
2022-10-25T15:09:29.007Z,95313.97
2022-10-25T15:12:11.760Z,95309.13
2022-10-25T15:14:38.439Z,95306.84
2022-10-25T15:17:29.234Z,95311.66
2022-10-25T15:20:07.468Z,95310.34
2022-10-25T15:22:46.857Z,95312.06
2022-10-25T15:25:17.004Z,95310.91
2022-10-25T15:27:43.925Z,95310.63
2022-10-25T15:30:37.684Z,95317.72
2022-10-25T15:33:24.230Z,95316.22
2022-10-25T15:35:51.986Z,95309.91
2022-10-25T15:38:19.431Z,95314.41
2022-10-25T15:40:47.235Z,95318.38
2022-10-25T15:43:13.965Z,95301.03
2022-10-25T15:45:41.177Z,95311.16
2022-10-25T15:48:14.078Z,95308.19
2022-10-25T15:50:47.057Z,95313.00
2022-10-25T15:53:13.605Z,95313.22
2022-10-25T15:55:40.176Z,95308.28
2022-10-25T15:58:09.795Z,95311.63
2022-10-25T16:00:38.835Z,95299.38
2022-10-25T16:03:08.396Z,95309.50
2022-10-25T16:05:37.136Z,95310.03
2022-10-25T16:08:04.753Z,95311.91
2022-10-25T16:10:32.100Z,95312.25
2022-10-25T16:13:05.873Z,95319.63
2022-10-25T16:15:32.987Z,95326.09
2022-10-25T16:17:59.517Z,95326.13
2022-10-25T16:20:29.590Z,95325.34
2022-10-25T16:22:57.466Z,95316.41
2022-10-25T16:25:30.479Z,95328.25
2022-10-25T16:28:00.055Z,95326.13
2022-10-25T16:30:30.785Z,95319.63
2022-10-25T16:32:57.367Z,95327.84
2022-10-25T16:35:24.668Z,95326.34
2022-10-25T16:37:51.984Z,95330.22
2022-10-25T16:40:20.872Z,95329.28
2022-10-25T16:42:48.528Z,95335.38
2022-10-25T16:45:22.181Z,95337.94
2022-10-25T16:47:49.077Z,95338.91
2022-10-25T16:50:15.735Z,95335.16
2022-10-25T16:52:42.381Z,95342.22
2022-10-25T16:55:10.065Z,95341.66
2022-10-25T16:57:36.704Z,95344.06
2022-10-25T17:00:04.360Z,95348.19
2022-10-25T17:02:31.001Z,95342.34
2022-10-25T17:04:57.580Z,95345.63
2022-10-25T17:07:24.423Z,95351.34
2022-10-25T17:09:51.003Z,95347.84
2022-10-25T17:12:17.779Z,95345.31
2022-10-25T17:14:44.332Z,95347.75
2022-10-25T17:17:10.972Z,95353.34
2022-10-25T17:19:37.579Z,95347.63
2022-10-25T17:22:04.205Z,95347.00
2022-10-25T17:24:33.050Z,95353.75
2022-10-25T17:26:59.674Z,95348.22
2022-10-25T17:29:26.287Z,95346.31
2022-10-25T17:31:53.036Z,95351.00
2022-10-25T17:34:19.638Z,95350.00
2022-10-25T17:36:46.253Z,95348.81
2022-10-25T17:39:13.182Z,95347.09
2022-10-25T17:41:39.737Z,95345.13
2022-10-25T17:44:06.290Z,95345.41
2022-10-25T17:46:32.955Z,95341.81
2022-10-25T17:49:03.287Z,95346.38
2022-10-25T17:51:31.086Z,95342.03
2022-10-25T17:53:57.723Z,95343.06
2022-10-25T17:56:26.341Z,95342.38
2022-10-25T17:58:54.302Z,95341.50
2022-10-25T18:01:26.514Z,95340.16
2022-10-25T18:03:54.746Z,95341.84
2022-10-25T18:08:56.827Z,95337.63
2022-10-25T18:11:25.918Z,95336.28
2022-10-25T18:13:54.887Z,95336.44
2022-10-25T18:16:23.203Z,95341.06
2022-10-25T18:18:49.740Z,95335.53
2022-10-25T18:21:16.446Z,95338.25
2022-10-25T18:23:43.124Z,95339.56
2022-10-25T18:26:13.273Z,95332.13
2022-10-25T18:28:40.115Z,95328.88
2022-10-25T18:31:09.061Z,95335.00
2022-10-25T18:33:38.002Z,95321.72
2022-10-25T18:36:11.322Z,95326.50
2022-10-25T18:38:38.129Z,95319.84
2022-10-25T18:41:10.355Z,95325.56
2022-10-25T18:43:36.949Z,95321.66
2022-10-25T18:46:03.807Z,95317.72
2022-10-25T18:48:30.557Z,95316.41
2022-10-25T18:51:03.250Z,95313.44
2022-10-25T18:53:30.750Z,95314.66
2022-10-25T18:55:57.720Z,95307.47
2022-10-25T18:58:24.277Z,95309.66
2022-10-25T19:00:50.856Z,95311.44
2022-10-25T19:03:17.467Z,95305.91
2022-10-25T19:05:44.065Z,95297.34
2022-10-25T19:08:12.119Z,95297.94
2022-10-25T19:10:39.839Z,95289.13
2022-10-25T19:13:07.691Z,95291.31
2022-10-25T19:15:34.520Z,95293.34
2022-10-25T19:18:01.195Z,95291.88
2022-10-25T19:20:27.785Z,95285.22
2022-10-25T19:22:58.580Z,95286.03
2022-10-25T19:25:29.723Z,95278.81
2022-10-25T19:27:56.837Z,95276.25
2022-10-25T19:30:24.228Z,95276.69
2022-10-25T19:32:51.075Z,95275.34
2022-10-25T19:35:18.455Z,95273.53
2022-10-25T19:37:45.321Z,95271.94
2022-10-25T19:40:12.175Z,95273.31
2022-10-25T19:42:38.766Z,95274.56
2022-10-25T19:45:05.770Z,95267.66
2022-10-25T19:47:34.705Z,95272.00
2022-10-25T19:50:03.320Z,95272.97
2022-10-25T19:52:29.894Z,95273.38
2022-10-25T19:54:56.504Z,95265.34
2022-10-25T19:57:23.115Z,95274.88
2022-10-25T19:59:49.650Z,95266.59
2022-10-25T20:02:16.246Z,95270.78
2022-10-25T20:04:42.911Z,95267.81
2022-10-25T20:07:09.459Z,95272.44
2022-10-25T20:09:36.010Z,95275.25
2022-10-25T20:12:02.578Z,95264.69
2022-10-25T20:14:30.779Z,95262.66
2022-10-25T20:16:57.399Z,95274.72
2022-10-25T20:19:24.021Z,95270.25
2022-10-25T20:21:50.678Z,95270.13
2022-10-25T20:24:17.299Z,95272.44
2022-10-25T20:26:46.990Z,95274.44
2022-10-25T20:29:20.167Z,95273.91
2022-10-25T20:31:48.176Z,95267.28
2022-10-25T20:34:14.719Z,95270.66
2022-10-25T20:36:41.256Z,95274.19
2022-10-25T20:39:07.818Z,95268.88
2022-10-25T20:41:35.274Z,95266.16
2022-10-25T20:44:05.758Z,95270.63
2022-10-25T20:46:33.722Z,95275.38
2022-10-25T20:49:01.991Z,95275.50
2022-10-25T20:51:28.826Z,95274.97
2022-10-25T20:53:56.904Z,95265.59
2022-10-25T20:56:23.776Z,95266.16
2022-10-25T20:58:50.613Z,95263.03
2022-10-25T21:01:17.529Z,95259.56
2022-10-25T21:03:44.209Z,95261.97
2022-10-25T21:06:12.272Z,95262.50
2022-10-25T21:08:39.337Z,95259.91
2022-10-25T21:11:07.787Z,95254.50
2022-10-25T21:13:35.488Z,95257.19
2022-10-25T21:16:06.662Z,95260.72
2022-10-25T21:18:34.011Z,95253.53
2022-10-25T21:21:02.784Z,95249.47
2022-10-25T21:23:29.430Z,95254.06
2022-10-25T21:26:04.439Z,95247.44
2022-10-25T21:28:33.706Z,95247.69
2022-10-25T21:31:05.243Z,95254.97
2022-10-25T21:33:31.841Z,95251.56
2022-10-25T21:36:03.431Z,95249.50
2022-10-25T21:38:29.995Z,95250.84
2022-10-25T21:41:06.837Z,95244.63
2022-10-25T21:43:33.582Z,95244.88
2022-10-25T21:46:00.162Z,95241.22
2022-10-25T21:48:26.840Z,95241.47
2022-10-25T21:50:58.560Z,95239.69
2022-10-25T21:53:25.337Z,95242.69
2022-10-25T21:55:52.071Z,95237.81
2022-10-25T21:58:18.637Z,95228.94
2022-10-25T22:00:45.191Z,95223.25
2022-10-25T22:03:11.762Z,95230.44
2022-10-25T22:05:43.217Z,95224.19
2022-10-25T22:08:09.781Z,95226.47
2022-10-25T22:10:36.352Z,95223.06
2022-10-25T22:13:02.955Z,95222.00
2022-10-25T22:15:29.649Z,95224.06
2022-10-25T22:17:56.228Z,95213.38
2022-10-25T22:20:22.809Z,95212.56
2022-10-25T22:22:49.715Z,95207.84
2022-10-25T22:25:16.478Z,95206.91
2022-10-25T22:30:11.119Z,95207.22
2022-10-25T22:32:37.643Z,95197.78
2022-10-25T22:35:04.398Z,95195.88
2022-10-25T22:37:30.941Z,95193.97
2022-10-25T22:39:57.461Z,95205.19
2022-10-25T22:42:25.323Z,95203.16
2022-10-25T22:44:51.869Z,95201.56
2022-10-25T22:47:18.454Z,95205.22
2022-10-25T22:49:44.990Z,95202.91
2022-10-25T22:52:13.705Z,95201.44
2022-10-25T22:54:40.246Z,95208.31
2022-10-25T22:57:06.778Z,95207.94
2022-10-25T22:59:33.358Z,95214.16
2022-10-25T23:01:59.894Z,95218.47
2022-10-25T23:04:26.539Z,95212.78
2022-10-25T23:06:53.167Z,95203.59
2022-10-25T23:09:19.746Z,95203.03
2022-10-25T23:11:46.625Z,95190.28
2022-10-25T23:14:16.570Z,95198.97
2022-10-25T23:16:45.450Z,95203.97
2022-10-25T23:19:12.130Z,95209.13
2022-10-25T23:21:38.718Z,95203.03
2022-10-25T23:24:05.696Z,95210.06
2022-10-25T23:26:34.344Z,95210.06
2022-10-25T23:29:01.279Z,95200.19
2022-10-25T23:31:28.910Z,95205.88
2022-10-25T23:33:57.525Z,95202.59
2022-10-25T23:36:26.645Z,95196.09
2022-10-25T23:38:54.247Z,95191.47
2022-10-25T23:41:22.069Z,95188.22
2022-10-25T23:43:49.041Z,95183.75
2022-10-25T23:46:15.642Z,95175.34
2022-10-25T23:48:42.310Z,95168.84
2022-10-25T23:51:15.831Z,95171.28
2022-10-25T23:53:43.076Z,95168.84
2022-10-25T23:56:11.996Z,95168.56
2022-10-25T23:58:41.599Z,95171.41
